Terminal Aerodrome Forecast
Issued by NWS Memphis, TN

Home | Current Version | Previous Version | Text Only | Print | Product List | Glossary On
Versions: 1 2 3 4 5 6 7 8 9 10 11 12
000
FTUS44 KMEG 211738
TAFMKL
TAF
KMKL 211738Z 2118/2218 18011G17KT P6SM SCT020 BKN060
      TEMPO 2118/2120 BKN020
     FM212000 18011G17KT P6SM SCT020 BKN060
     FM220000 17010KT P6SM SCT060
     FM221000 17014G20KT P6SM VCSH BKN040
     FM221200 17015G21KT 4SM SHRA BR BKN020
     FM221400 18015G20KT P6SM -SHRA BKN025
     FM221600 20015G22KT P6SM SCT030 BKN090=

USA.gov is the U.S. government's official web portal to all federal, state and local government web resources and services.